Rockwell, Illinois
Current Conditions -  °F | °C
As of 11:15 AM on Thursday 23 Oct 2014 (Local Time) from KVYS Reporting Station
Clear Clear  
Wind Chill: 56°   Ceiling: Unl
Heat Index: 56°   Visibility: 10mi
Dew Point: 42°   Wind: 15mph
Humidity: 60%   Direction: 200°SSW
Pressure: 30.19"   Gusts: 18mph
Location:  41.3955°N, 89.0957°W
Report Text: KVYS 231615Z AUTO 20013G16KT 10SM CLR 14/06 A3019 RMK AO2 T01350058
Loading
Personal Weather Stations






























Interactive Weather Map
Tropical Storm Tracking
New forecast layout! Learn more

10-Day Weather Forecast

Advertisements
Track Severe Weather on mobile